Time;durP1;ratioP1;P1;durP2;ratioP2;P2;SDS_P1;SDS_P2;PMS_P1;PMS_P2;Temp;Humidity;BMP_temperature;BMP_pressure;BME280_temperature;BME280_humidity;BME280_pressure;Samples;Min_cycle;Max_cycle;Signal;HPM_P1;HPM_P2
2023/12/29 00:11:49;;;;;;;8.52;4.95;;;;;;;15.05;54.96;97359.59;5045362;28;20036;-24
2023/12/29 00:27:54;;;;;;;9.88;4.72;;;;;;;14.97;55.21;97339.13;5037558;28;20168;-24
2023/12/29 00:43:46;;;;;;;6.95;4.35;;;;;;;14.97;55.45;97320.78;5029154;28;20632;-24
2023/12/29 01:13:06;;;;;;;7.68;3.80;;;;;;;15.13;55.15;97325.41;5043498;28;20103;-24
2023/12/29 01:28:59;;;;;;;9.27;4.80;;;;;;;15.10;55.33;97320.81;5036738;28;20036;-24
2023/12/29 01:44:54;;;;;;;8.13;4.60;;;;;;;15.01;55.75;97326.91;5030522;28;20132;-24
2023/12/29 01:58:05;;;;;;;6.65;4.35;;;;;;;15.12;55.47;97315.69;5036519;28;20037;-24
2023/12/29 02:13:59;;;;;;;8.02;4.70;;;;;;;15.07;55.99;97294.38;5036453;28;20449;-24
2023/12/29 02:30:11;;;;;;;7.60;4.70;;;;;;;15.02;56.08;97294.91;5034978;28;20035;-24
2023/12/29 03:00:49;;;;;;;6.57;4.13;;;;;;;15.01;56.55;97285.94;4942547;28;20061;-24
2023/12/29 03:13:59;;;;;;;6.63;4.40;;;;;;;15.06;56.72;97296.34;5007401;28;20040;-24
2023/12/29 03:29:52;;;;;;;6.88;4.65;;;;;;;14.90;57.44;97284.72;5013070;28;20117;-24
2023/12/29 03:45:45;;;;;;;9.05;4.97;;;;;;;15.10;56.99;97274.38;5024498;28;20055;-24
2023/12/29 04:15:04;;;;;;;5.78;4.32;;;;;;;15.07;57.28;97259.63;5035042;28;20044;-24
2023/12/29 04:30:56;;;;;;;6.35;4.43;;;;;;;14.96;57.98;97266.59;5033644;28;20065;-24
2023/12/29 04:46:48;;;;;;;6.50;4.45;;;;;;;15.03;57.88;97260.94;5028467;28;20509;-24
2023/12/29 05:16:07;;;;;;;6.25;4.55;;;;;;;15.01;57.83;97271.50;5043959;28;20100;-24
2023/12/29 05:32:02;;;;;;;7.55;4.80;;;;;;;14.92;58.27;97272.16;5036420;28;20027;-24
2023/12/29 06:02:11;;;;;;;9.18;5.35;;;;;;;15.16;57.61;97260.94;5035749;28;20116;-24
2023/12/29 06:18:04;;;;;;;7.57;4.88;;;;;;;14.85;58.65;97257.94;5035346;28;20711;-24
2023/12/29 06:31:15;;;;;;;8.40;4.50;;;;;;;14.99;58.13;97241.13;5036048;28;20494;-24
2023/12/29 06:47:09;;;;;;;8.55;4.97;;;;;;;15.08;57.73;97235.81;5029495;28;20057;-24
2023/12/29 07:03:01;;;;;;;10.35;5.97;;;;;;;15.04;57.62;97248.78;5041550;28;20359;-24
2023/12/29 07:18:54;;;;;;;9.52;6.18;;;;;;;14.96;57.55;97242.75;5042079;28;20040;-24
2023/12/29 07:31:52;;;;;;;13.02;6.53;;;;;;;14.97;57.72;97257.19;5041683;28;20036;-24
2023/12/29 07:47:26;;;;;;;13.63;7.85;;;;;;;15.11;57.37;97259.50;5027728;28;20047;-24
2023/12/29 08:03:18;;;;;;;9.77;6.03;;;;;;;14.54;59.69;97272.06;5038321;28;20041;-24
2023/12/29 08:19:10;;;;;;;8.48;5.60;;;;;;;15.05;58.41;97274.91;5048311;28;20146;-24
2023/12/29 08:32:34;;;;;;;8.85;5.45;;;;;;;14.87;59.73;97289.06;5038048;28;20028;-24
2023/12/29 08:48:26;;;;;;;7.57;5.68;;;;;;;14.88;59.80;97307.00;5030714;28;20060;-24
2023/12/29 09:04:18;;;;;;;8.75;5.65;;;;;;;15.30;59.03;97302.28;5036733;28;20044;-24
2023/12/29 09:33:38;;;;;;;8.10;4.43;;;;;;;14.87;60.90;97321.84;5036722;28;20031;-24
2023/12/29 09:49:38;;;;;;;5.85;4.00;;;;;;;15.04;60.17;97319.81;5029410;28;20107;-24
2023/12/29 10:05:31;;;;;;;10.35;5.57;;;;;;;14.87;60.74;97301.97;5034654;28;20044;-25
2023/12/29 10:18:48;;;;;;;7.07;4.15;;;;;;;15.10;59.62;97299.72;5038549;28;20036;-24
2023/12/29 10:34:41;;;;;;;4.50;3.40;;;;;;;15.13;60.05;97278.97;5034382;28;20039;-24
2023/12/29 10:50:44;;;;;;;13.15;6.57;;;;;;;15.08;60.38;97255.66;5028262;28;20099;-24
2023/12/29 11:20:04;;;;;;;9.43;7.43;;;;;;;15.19;60.47;97222.59;5042482;28;21648;-24
2023/12/29 11:36:08;;;;;;;8.27;5.97;;;;;;;15.19;60.54;97199.97;5034223;28;20087;-24
2023/12/29 12:06:37;;;;;;;11.32;5.30;;;;;;;15.13;59.13;97174.38;5037098;28;20451;-24
2023/12/29 12:36:00;;;;;;;6.03;3.42;;;;;;;15.33;56.08;97147.59;5037762;28;20048;-24
2023/12/29 12:51:54;;;;;;;7.22;4.05;;;;;;;15.24;55.32;97139.28;5031161;28;20095;-24
2023/12/29 13:07:46;;;;;;;5.78;3.42;;;;;;;15.33;54.95;97125.72;5036702;28;20044;-24
2023/12/29 13:20:48;;;;;;;5.38;3.75;;;;;;;15.21;55.74;97121.78;5037320;28;20437;-24
2023/12/29 13:37:00;;;;;;;10.23;5.20;;;;;;;15.21;56.17;97121.78;5036495;28;20386;-24
2023/12/29 13:52:52;;;;;;;10.45;6.10;;;;;;;15.31;56.19;97115.25;5028684;28;20102;-24
2023/12/29 14:06:32;;;;;;;9.50;6.28;;;;;;;15.10;57.06;97104.97;5043059;28;20501;-24
2023/12/29 14:22:24;;;;;;;11.63;5.80;;;;;;;15.23;57.19;97097.53;5035591;28;20040;-24
2023/12/29 14:38:17;;;;;;;7.93;4.85;;;;;;;15.25;57.25;97092.38;5035260;28;20175;-24
2023/12/29 15:23:51;;;;;;;13.55;6.20;;;;;;;15.35;56.52;97080.34;6162615;23;20028;-24
2023/12/29 15:53:10;;;;;;;18.27;11.98;;;;;;;15.27;57.01;97076.31;6162965;23;20450;-24
2023/12/29 16:09:04;;;;;;;13.10;7.95;;;;;;;15.33;56.67;97079.28;6154675;23;20028;-24
2023/12/29 16:38:23;;;;;;;14.85;8.65;;;;;;;15.46;56.41;97078.00;6155921;23;20458;-24
2023/12/29 16:54:15;;;;;;;32.63;21.55;;;;;;;15.04;57.62;97068.50;6155752;23;20012;-24
2023/12/29 17:10:08;;;;;;;32.10;17.60;;;;;;;15.41;56.25;97081.31;6153657;23;20048;-24
2023/12/29 17:23:34;;;;;;;22.63;13.85;;;;;;;15.26;56.78;97085.72;6156178;23;20032;-24
2023/12/29 17:39:26;;;;;;;28.02;18.73;;;;;;;15.39;55.86;97078.25;6155959;23;20085;-24
2023/12/29 17:55:19;;;;;;;41.13;22.77;;;;;;;15.18;56.56;97092.63;6155448;23;20101;-24
2023/12/29 18:25:30;;;;;;;22.30;14.85;;;;;;;15.26;56.24;97093.16;6154547;23;20060;-24
2023/12/29 18:41:24;;;;;;;27.30;17.67;;;;;;;15.27;56.22;97091.94;6153953;23;20096;-24
2023/12/29 18:54:36;;;;;;;25.92;17.65;;;;;;;15.34;56.17;97097.16;6155462;23;20040;-24
2023/12/29 19:10:32;;;;;;;19.75;13.57;;;;;;;15.29;56.12;97095.00;6153434;23;20080;-24
2023/12/29 19:26:24;;;;;;;34.83;21.58;;;;;;;15.32;55.85;97075.00;6154287;23;20067;-24
2023/12/29 19:42:17;;;;;;;19.55;13.45;;;;;;;15.35;55.59;97076.84;6155631;23;20020;-24
2023/12/29 19:55:18;;;;;;;12.88;11.02;;;;;;;15.22;55.82;97085.06;6156733;23;20024;-24
2023/12/29 20:11:10;;;;;;;19.27;13.45;;;;;;;15.35;55.44;97085.81;6155230;23;20112;-24
2023/12/29 20:27:03;;;;;;;17.92;12.20;;;;;;;15.33;55.25;97080.00;6155345;23;20470;-24
2023/12/29 20:42:55;;;;;;;13.60;7.28;;;;;;;15.29;55.25;97078.63;6155361;23;20040;-24
2023/12/29 20:55:57;;;;;;;15.05;9.32;;;;;;;15.19;55.34;97069.56;6156076;23;20017;-24
2023/12/29 21:11:55;;;;;;;8.85;5.88;;;;;;;15.31;54.31;97048.88;6154055;23;20105;-24
2023/12/29 21:28:25;;;;;;;12.80;7.72;;;;;;;15.14;54.18;97052.97;6154781;23;20020;-24
2023/12/29 21:41:33;;;;;;;11.70;7.32;;;;;;;15.24;54.23;97060.81;6156012;23;20068;-24
2023/12/29 21:58:16;;;;;;;18.10;12.85;;;;;;;15.17;54.06;97049.34;6154440;23;20053;-24
2023/12/29 22:28:56;;;;;;;6.38;4.20;;;;;;;15.15;52.98;97038.88;6154236;23;20016;-24
2023/12/29 22:42:13;;;;;;;8.07;5.00;;;;;;;15.31;52.35;97027.03;6155170;23;20359;-24
2023/12/29 22:58:05;;;;;;;6.88;5.00;;;;;;;15.34;51.76;97007.75;6154928;23;20147;-24
2023/12/29 23:13:57;;;;;;;9.00;4.75;;;;;;;15.17;52.56;96991.97;6154719;23;20490;-24
2023/12/29 23:29:49;;;;;;;5.72;3.50;;;;;;;15.28;51.68;96984.94;6155881;23;20112;-24
2023/12/29 23:42:59;;;;;;;7.55;4.35;;;;;;;15.35;51.52;96968.28;6156688;23;20495;-24
2023/12/29 23:58:54;;;;;;;8.20;4.40;;;;;;;15.32;51.96;96952.78;6156730;23;20020;-24
